createdAt,value
2018-06-27T00:00:00.680Z,95.30
2018-06-27T00:02:28.840Z,95.40
2018-06-27T00:04:56.992Z,95.40
2018-06-27T00:07:25.152Z,95.40
2018-06-27T00:09:53.349Z,95.50
2018-06-27T00:12:21.513Z,95.70
2018-06-27T00:14:49.707Z,95.60
2018-06-27T00:17:17.869Z,95.60
2018-06-27T00:19:46.057Z,95.60
2018-06-27T00:22:14.225Z,95.80
2018-06-27T00:24:42.388Z,95.80
2018-06-27T00:27:10.724Z,95.80
2018-06-27T00:29:38.891Z,95.80
2018-06-27T00:32:07.069Z,95.90
2018-06-27T00:34:35.266Z,95.90
2018-06-27T00:37:03.443Z,95.90
2018-06-27T00:39:31.628Z,96.00
2018-06-27T00:41:59.782Z,96.00
2018-06-27T00:44:27.947Z,95.90
2018-06-27T00:46:56.171Z,96.00
2018-06-27T00:49:24.326Z,95.90
2018-06-27T00:51:52.500Z,96.10
2018-06-27T00:54:20.653Z,96.10
2018-06-27T00:56:48.830Z,96.20
2018-06-27T00:59:16.969Z,96.30
2018-06-27T01:01:45.140Z,96.40
2018-06-27T01:04:13.293Z,96.40
2018-06-27T01:06:41.462Z,96.40
2018-06-27T01:09:10.231Z,96.50
2018-06-27T01:11:38.592Z,96.60
2018-06-27T01:14:06.748Z,96.60
2018-06-27T01:16:34.917Z,96.50
2018-06-27T01:19:03.085Z,96.60
2018-06-27T01:21:31.254Z,96.40
2018-06-27T01:23:59.420Z,96.40
2018-06-27T01:26:27.593Z,96.10
2018-06-27T01:28:55.737Z,96.00
2018-06-27T01:31:23.979Z,95.90
2018-06-27T01:33:52.160Z,95.90
2018-06-27T01:36:20.336Z,95.70
2018-06-27T01:38:48.514Z,95.80
2018-06-27T01:41:16.672Z,95.80
2018-06-27T01:43:44.805Z,95.80
2018-06-27T01:46:12.984Z,95.80
2018-06-27T01:48:41.136Z,95.80
2018-06-27T01:51:09.301Z,95.80
2018-06-27T01:53:38.364Z,95.80
2018-06-27T01:56:08.380Z,95.90
2018-06-27T01:58:36.899Z,96.30
2018-06-27T02:01:05.565Z,96.10
2018-06-27T02:03:33.750Z,96.00
2018-06-27T02:06:02.137Z,96.10
2018-06-27T02:08:30.293Z,96.10
2018-06-27T02:10:58.508Z,96.10
2018-06-27T02:13:26.680Z,96.10
2018-06-27T02:15:54.841Z,96.10
2018-06-27T02:18:23.008Z,96.30
2018-06-27T02:20:51.154Z,96.30
2018-06-27T02:23:19.328Z,96.40
2018-06-27T02:25:47.484Z,96.40
2018-06-27T02:28:15.669Z,96.40
2018-06-27T02:30:43.839Z,96.40
2018-06-27T02:35:44.256Z,96.60
2018-06-27T02:38:12.424Z,96.60
2018-06-27T02:40:40.565Z,96.80
2018-06-27T02:43:08.749Z,96.50
2018-06-27T02:45:36.902Z,96.70
2018-06-27T02:48:05.463Z,96.80
2018-06-27T02:50:33.636Z,96.70
2018-06-27T02:53:01.847Z,96.70
2018-06-27T02:55:30.006Z,96.70
2018-06-27T02:57:58.168Z,96.80
2018-06-27T03:00:26.438Z,96.90
2018-06-27T03:02:54.633Z,97.10
2018-06-27T03:05:22.791Z,97.20
2018-06-27T03:07:50.968Z,97.20
2018-06-27T03:12:58.313Z,97.20
2018-06-27T03:15:26.577Z,97.30
2018-06-27T03:17:54.797Z,97.50
2018-06-27T03:20:23.018Z,97.40
2018-06-27T03:22:51.212Z,97.40
2018-06-27T03:25:19.432Z,97.20
2018-06-27T03:27:47.720Z,97.20
2018-06-27T03:30:15.893Z,97.30
2018-06-27T03:32:44.112Z,97.30
2018-06-27T03:35:12.328Z,97.30
2018-06-27T03:37:40.539Z,97.30
2018-06-27T03:40:08.758Z,97.10
2018-06-27T03:42:36.990Z,97.00
2018-06-27T03:45:05.212Z,97.00
2018-06-27T03:47:33.433Z,96.90
2018-06-27T03:50:01.650Z,96.90
2018-06-27T03:52:29.877Z,96.80
2018-06-27T03:54:58.138Z,96.60
2018-06-27T03:57:26.347Z,96.50
2018-06-27T03:59:54.813Z,96.50
2018-06-27T04:02:23.025Z,96.40
2018-06-27T04:04:51.280Z,96.50
2018-06-27T04:07:19.505Z,96.50
2018-06-27T04:09:47.739Z,96.60
2018-06-27T04:12:15.985Z,96.70
2018-06-27T04:14:44.523Z,96.50
2018-06-27T04:17:12.720Z,96.50
2018-06-27T04:19:40.933Z,96.50
2018-06-27T04:22:13.007Z,96.60
2018-06-27T04:24:41.492Z,96.60
2018-06-27T04:27:09.733Z,96.70
2018-06-27T04:29:38.149Z,96.80
2018-06-27T04:32:09.073Z,96.80
2018-06-27T04:34:40.251Z,96.90
2018-06-27T04:37:08.471Z,96.90
2018-06-27T04:39:36.754Z,96.80
2018-06-27T04:42:04.998Z,96.70
2018-06-27T04:44:33.248Z,96.60
2018-06-27T04:47:01.457Z,96.60
2018-06-27T04:49:29.736Z,96.50
2018-06-27T04:51:57.918Z,96.50
2018-06-27T04:54:26.142Z,96.40
2018-06-27T04:56:54.344Z,96.30
2018-06-27T04:59:22.583Z,96.30
2018-06-27T05:01:50.896Z,96.40
2018-06-27T05:04:19.020Z,96.50
2018-06-27T05:06:47.265Z,96.40
2018-06-27T05:09:15.494Z,96.50
2018-06-27T05:11:43.735Z,96.50
2018-06-27T05:14:11.962Z,96.50
2018-06-27T05:16:40.180Z,96.70
2018-06-27T05:19:08.422Z,96.70
2018-06-27T05:21:36.664Z,96.80
2018-06-27T05:24:04.957Z,96.80
2018-06-27T05:26:33.228Z,96.80
2018-06-27T05:29:01.461Z,96.70
2018-06-27T05:31:29.677Z,96.90
2018-06-27T05:33:57.941Z,97.00
2018-06-27T05:36:26.116Z,97.20
2018-06-27T05:38:54.333Z,97.20
2018-06-27T05:41:22.548Z,97.30
2018-06-27T05:43:50.812Z,97.30
2018-06-27T05:46:19.052Z,97.40
2018-06-27T05:48:47.298Z,97.40
2018-06-27T05:51:15.524Z,97.60
2018-06-27T05:53:43.752Z,97.60
2018-06-27T05:56:11.994Z,97.60
2018-06-27T05:58:40.201Z,97.60
2018-06-27T06:01:08.431Z,97.60
2018-06-27T06:03:36.645Z,97.70
2018-06-27T06:06:05.015Z,97.90
2018-06-27T06:08:33.247Z,98.00
2018-06-27T06:11:01.494Z,98.00
2018-06-27T06:13:29.733Z,98.00
2018-06-27T06:15:57.935Z,98.10
2018-06-27T06:18:26.147Z,97.90
2018-06-27T06:20:54.378Z,97.60
2018-06-27T06:23:22.614Z,97.10
2018-06-27T06:25:50.837Z,97.00
2018-06-27T06:28:19.061Z,96.60
2018-06-27T06:30:47.311Z,96.60
2018-06-27T06:33:15.538Z,96.60
2018-06-27T06:35:43.823Z,96.00
2018-06-27T06:38:12.045Z,95.10
2018-06-27T06:40:40.312Z,94.30
2018-06-27T06:43:08.520Z,93.50
2018-06-27T06:45:36.742Z,92.70
2018-06-27T06:48:05.060Z,90.40
2018-06-27T06:50:33.272Z,88.40
2018-06-27T06:53:01.528Z,86.90
2018-06-27T06:55:30.920Z,84.00
2018-06-27T06:57:59.117Z,82.10
2018-06-27T07:00:27.348Z,81.50
2018-06-27T07:02:55.557Z,83.20
2018-06-27T07:05:23.781Z,84.00
2018-06-27T07:07:52.052Z,83.50
2018-06-27T07:10:20.261Z,83.20
2018-06-27T07:12:48.472Z,82.00
2018-06-27T07:15:16.697Z,78.40
2018-06-27T07:17:44.948Z,77.50
2018-06-27T07:22:47.750Z,73.50
2018-06-27T07:25:15.969Z,70.00
2018-06-27T07:27:44.180Z,71.30
2018-06-27T07:30:12.396Z,72.40
2018-06-27T07:32:40.616Z,73.80
2018-06-27T07:35:08.948Z,76.10
2018-06-27T07:37:37.191Z,77.70
2018-06-27T07:40:05.412Z,77.00
2018-06-27T07:42:33.645Z,77.70
2018-06-27T07:45:01.846Z,71.70
2018-06-27T07:47:30.066Z,69.30
2018-06-27T07:49:58.335Z,68.20
2018-06-27T07:52:26.542Z,67.60
2018-06-27T07:54:54.749Z,67.10
2018-06-27T07:57:22.983Z,67.70
2018-06-27T07:59:51.196Z,65.60
2018-06-27T08:02:19.450Z,64.90
2018-06-27T08:04:47.657Z,63.30
2018-06-27T08:07:16.152Z,62.80
2018-06-27T08:09:44.351Z,63.40
2018-06-27T08:12:12.572Z,63.80
2018-06-27T08:14:40.776Z,62.90
2018-06-27T08:17:09.002Z,62.50
2018-06-27T08:19:37.207Z,61.70
2018-06-27T08:22:05.725Z,61.70
2018-06-27T08:24:33.939Z,62.20
2018-06-27T08:27:02.174Z,61.80
2018-06-27T08:29:30.382Z,61.20
2018-06-27T08:31:58.617Z,60.50
2018-06-27T08:34:26.780Z,60.80
2018-06-27T08:36:55.027Z,60.70
2018-06-27T08:39:23.250Z,61.60
2018-06-27T08:41:51.514Z,62.70
2018-06-27T08:44:19.789Z,63.50
2018-06-27T08:46:47.974Z,63.10
2018-06-27T08:49:16.189Z,64.60
2018-06-27T08:51:44.408Z,65.50
2018-06-27T08:54:12.626Z,66.20
2018-06-27T08:56:41.247Z,67.30
2018-06-27T08:59:09.462Z,67.40
2018-06-27T09:01:37.683Z,69.10
2018-06-27T09:04:05.929Z,69.20
2018-06-27T09:06:34.173Z,69.70
2018-06-27T09:09:02.383Z,71.00
2018-06-27T09:11:30.641Z,72.50
2018-06-27T09:13:58.907Z,73.10
2018-06-27T09:16:27.151Z,73.00
2018-06-27T09:18:55.397Z,71.90
2018-06-27T09:21:23.613Z,71.90
2018-06-27T09:23:52.949Z,69.80
2018-06-27T09:26:21.162Z,70.00
2018-06-27T09:28:49.385Z,67.50
2018-06-27T09:31:17.605Z,67.10
2018-06-27T09:33:45.879Z,66.60
2018-06-27T09:36:14.142Z,66.10
2018-06-27T09:38:42.362Z,64.40
2018-06-27T09:41:10.555Z,65.60
2018-06-27T09:43:38.797Z,66.10
2018-06-27T09:46:07.007Z,65.90
2018-06-27T09:48:35.253Z,63.60
2018-06-27T09:51:03.440Z,63.20
2018-06-27T09:53:31.662Z,61.80
2018-06-27T09:55:59.889Z,61.60
2018-06-27T09:58:28.115Z,61.00
2018-06-27T10:00:56.333Z,60.00
2018-06-27T10:03:24.575Z,60.00
2018-06-27T10:05:52.782Z,59.90
2018-06-27T10:08:21.057Z,60.60
2018-06-27T10:10:49.264Z,60.00
2018-06-27T10:13:17.504Z,58.90
2018-06-27T10:15:45.723Z,59.20
2018-06-27T10:18:13.950Z,58.40
2018-06-27T10:20:42.164Z,58.10
2018-06-27T10:23:10.386Z,59.00
2018-06-27T10:25:38.622Z,59.10
2018-06-27T10:28:06.875Z,57.70
2018-06-27T10:30:35.204Z,58.00
2018-06-27T10:33:03.419Z,58.00
2018-06-27T10:35:31.655Z,57.80
2018-06-27T10:37:59.853Z,57.70
2018-06-27T10:40:28.057Z,57.40
2018-06-27T10:45:24.333Z,57.60
2018-06-27T10:47:52.577Z,55.90
2018-06-27T10:50:20.889Z,55.30
2018-06-27T10:52:49.147Z,55.70
2018-06-27T10:55:19.678Z,54.80
2018-06-27T10:57:47.927Z,54.60
2018-06-27T11:00:16.133Z,55.40
2018-06-27T11:02:44.368Z,54.90
2018-06-27T11:05:12.666Z,54.10
2018-06-27T11:07:40.866Z,53.90
2018-06-27T11:10:09.130Z,53.70
2018-06-27T11:12:37.364Z,53.50
2018-06-27T11:15:06.391Z,52.80
2018-06-27T11:17:34.611Z,52.60
2018-06-27T11:20:02.878Z,51.40
2018-06-27T11:22:31.115Z,51.10
2018-06-27T11:24:59.342Z,50.90
2018-06-27T11:27:27.569Z,51.50
2018-06-27T11:29:55.802Z,52.80
2018-06-27T11:32:24.390Z,52.60
2018-06-27T11:34:53.009Z,53.00
2018-06-27T11:37:22.466Z,52.90
2018-06-27T11:39:50.693Z,53.00
2018-06-27T11:42:18.921Z,53.20
2018-06-27T11:44:47.146Z,52.10
2018-06-27T11:47:15.381Z,51.20
2018-06-27T11:49:43.633Z,52.00
2018-06-27T11:52:11.853Z,52.40
2018-06-27T11:54:40.615Z,52.50
2018-06-27T11:57:08.950Z,50.10
2018-06-27T11:59:37.299Z,49.80
2018-06-27T12:02:05.581Z,49.80
2018-06-27T12:04:33.852Z,49.60
2018-06-27T12:07:02.131Z,50.40
2018-06-27T12:09:30.386Z,49.80
2018-06-27T12:11:58.606Z,50.70
2018-06-27T12:14:26.836Z,49.80
2018-06-27T12:16:55.064Z,50.00
2018-06-27T12:19:23.265Z,50.40
2018-06-27T12:21:53.542Z,50.60
2018-06-27T12:24:21.785Z,50.20
2018-06-27T12:26:50.053Z,49.60
2018-06-27T12:29:18.273Z,50.50
2018-06-27T12:31:46.514Z,49.40
2018-06-27T12:34:14.726Z,48.50
2018-06-27T12:36:42.982Z,48.40
2018-06-27T12:39:11.217Z,49.10
2018-06-27T12:41:39.422Z,49.20
2018-06-27T12:44:08.130Z,49.30
2018-06-27T12:46:36.633Z,50.20
2018-06-27T12:49:05.025Z,50.60
2018-06-27T12:51:33.262Z,51.00
2018-06-27T12:54:01.536Z,51.80
2018-06-27T12:56:29.800Z,52.00
2018-06-27T12:58:58.002Z,51.80
2018-06-27T13:01:26.229Z,51.80
2018-06-27T13:03:54.499Z,51.30
2018-06-27T13:06:22.724Z,51.10
2018-06-27T13:08:51.025Z,51.40
2018-06-27T13:11:19.210Z,51.30
2018-06-27T13:13:47.426Z,50.40
2018-06-27T13:16:15.687Z,49.00
2018-06-27T13:18:44.050Z,48.80
2018-06-27T13:21:12.273Z,48.50
2018-06-27T13:23:40.600Z,49.00
2018-06-27T13:26:08.815Z,49.60
2018-06-27T13:28:37.038Z,49.40
2018-06-27T13:31:05.341Z,48.30
2018-06-27T13:33:33.596Z,47.80
2018-06-27T13:36:01.818Z,47.80
2018-06-27T13:38:30.054Z,47.60
2018-06-27T13:40:58.296Z,48.20
2018-06-27T13:43:26.537Z,48.60
2018-06-27T13:45:54.739Z,47.10
2018-06-27T13:48:22.964Z,47.30
2018-06-27T13:50:51.197Z,48.00
2018-06-27T13:53:19.410Z,47.90
2018-06-27T13:55:47.645Z,47.00
2018-06-27T13:58:15.865Z,47.00
2018-06-27T14:00:44.088Z,46.50
2018-06-27T14:03:12.318Z,45.30
2018-06-27T14:05:40.564Z,46.20
2018-06-27T14:08:08.837Z,45.60
2018-06-27T14:10:37.083Z,45.30
2018-06-27T14:13:05.317Z,44.50
2018-06-27T14:15:33.564Z,44.10
2018-06-27T14:18:01.857Z,45.10
2018-06-27T14:20:30.086Z,45.60
2018-06-27T14:22:58.360Z,45.60
2018-06-27T14:25:26.596Z,46.00
2018-06-27T14:27:54.825Z,45.60
2018-06-27T14:30:23.189Z,45.30
2018-06-27T14:32:51.551Z,44.80
2018-06-27T14:35:19.694Z,45.10
2018-06-27T14:37:48.027Z,44.40
2018-06-27T14:40:16.155Z,43.90
2018-06-27T14:42:44.397Z,42.80
2018-06-27T14:45:12.634Z,42.00
2018-06-27T14:47:40.965Z,43.00
2018-06-27T14:52:37.165Z,42.10
2018-06-27T14:55:07.945Z,42.70
2018-06-27T14:57:36.735Z,40.90
2018-06-27T15:02:33.521Z,40.60
2018-06-27T15:05:01.772Z,40.70
2018-06-27T15:07:30.016Z,40.40
2018-06-27T15:09:58.241Z,40.00
2018-06-27T15:12:26.478Z,38.70
2018-06-27T15:14:54.709Z,38.40
2018-06-27T15:17:23.098Z,37.80
2018-06-27T15:19:51.327Z,36.70
2018-06-27T15:22:19.550Z,35.30
2018-06-27T15:24:47.807Z,33.00
2018-06-27T15:27:16.067Z,30.00
2018-06-27T15:29:44.277Z,28.10
2018-06-27T15:32:13.563Z,26.20
2018-06-27T15:34:41.789Z,24.90
2018-06-27T15:37:10.096Z,24.20
2018-06-27T15:39:38.314Z,23.20
2018-06-27T15:42:06.750Z,21.90
2018-06-27T15:44:35.017Z,23.60
2018-06-27T15:47:03.362Z,23.20
2018-06-27T15:49:31.573Z,22.40
2018-06-27T15:51:59.802Z,22.20
2018-06-27T15:56:56.833Z,21.60
2018-06-27T15:59:25.109Z,21.20
2018-06-27T16:01:53.343Z,21.30
2018-06-27T16:04:21.549Z,22.40
2018-06-27T16:06:49.991Z,23.00
2018-06-27T16:09:18.213Z,24.40
2018-06-27T16:11:46.607Z,25.30
2018-06-27T16:14:14.653Z,25.80
2018-06-27T16:16:42.914Z,27.20
2018-06-27T16:19:11.118Z,28.60
2018-06-27T16:21:39.340Z,29.00
2018-06-27T16:24:07.615Z,29.20
2018-06-27T16:26:35.778Z,29.70
2018-06-27T16:29:03.993Z,30.70
2018-06-27T16:31:32.627Z,31.10
2018-06-27T16:34:00.845Z,32.30
2018-06-27T16:36:29.065Z,31.50
2018-06-27T16:38:57.333Z,31.50
2018-06-27T16:41:25.577Z,31.90
2018-06-27T16:43:54.378Z,32.40
2018-06-27T16:46:22.639Z,32.80
2018-06-27T16:48:51.002Z,33.20
2018-06-27T16:51:19.374Z,32.20
2018-06-27T16:53:47.668Z,31.50
2018-06-27T16:56:15.917Z,32.60
2018-06-27T16:58:44.317Z,33.20
2018-06-27T17:01:12.700Z,34.00
2018-06-27T17:03:40.868Z,35.20
2018-06-27T17:06:09.174Z,34.50
2018-06-27T17:08:37.513Z,34.50
2018-06-27T17:11:05.816Z,35.10
2018-06-27T17:13:34.057Z,35.60
2018-06-27T17:16:02.335Z,36.00
2018-06-27T17:18:30.654Z,36.50
2018-06-27T17:20:58.907Z,35.10
2018-06-27T17:23:27.153Z,35.00
2018-06-27T17:25:55.429Z,36.00
2018-06-27T17:28:23.751Z,36.50
2018-06-27T17:30:51.983Z,37.30
2018-06-27T17:33:20.270Z,36.10
2018-06-27T17:35:48.523Z,36.20
2018-06-27T17:38:16.772Z,36.60
2018-06-27T17:40:45.319Z,36.80
2018-06-27T17:43:13.838Z,36.60
2018-06-27T17:45:42.045Z,36.70
2018-06-27T17:48:10.753Z,36.70
2018-06-27T17:50:39.152Z,36.40
2018-06-27T17:53:07.409Z,36.20
2018-06-27T17:55:35.773Z,36.40
2018-06-27T17:58:04.046Z,36.60
2018-06-27T18:00:32.295Z,36.90
2018-06-27T18:03:00.550Z,37.00
2018-06-27T18:05:28.933Z,38.40
2018-06-27T18:07:57.186Z,37.80
2018-06-27T18:10:25.421Z,38.70
2018-06-27T18:12:53.685Z,38.70
2018-06-27T18:15:21.925Z,39.00
2018-06-27T18:17:50.158Z,38.90
2018-06-27T18:20:18.472Z,38.50
2018-06-27T18:22:46.690Z,39.10
2018-06-27T18:25:14.922Z,38.60
2018-06-27T18:27:43.150Z,39.50
2018-06-27T18:30:11.458Z,39.70
2018-06-27T18:32:39.713Z,40.00
2018-06-27T18:35:07.966Z,40.30
2018-06-27T18:37:36.181Z,41.00
2018-06-27T18:40:04.464Z,40.60
2018-06-27T18:42:33.144Z,41.80
2018-06-27T18:45:01.467Z,42.50
2018-06-27T18:47:29.732Z,42.80
2018-06-27T18:49:57.981Z,42.40
2018-06-27T18:52:26.213Z,42.70
2018-06-27T18:54:54.509Z,43.30
2018-06-27T18:57:22.775Z,44.10
2018-06-27T18:59:51.024Z,44.60
2018-06-27T19:02:19.265Z,45.00
2018-06-27T19:04:47.534Z,45.40
2018-06-27T19:07:17.011Z,45.90
2018-06-27T19:09:45.353Z,46.20
2018-06-27T19:12:13.629Z,46.70
2018-06-27T19:14:41.906Z,47.40
2018-06-27T19:17:10.137Z,46.50
2018-06-27T19:19:38.383Z,45.00
2018-06-27T19:22:06.657Z,44.20
2018-06-27T19:24:35.005Z,44.50
2018-06-27T19:27:03.396Z,44.50
2018-06-27T19:29:31.722Z,44.20
2018-06-27T19:31:59.954Z,44.30
2018-06-27T19:34:28.251Z,44.90
2018-06-27T19:36:56.665Z,45.10
2018-06-27T19:39:24.973Z,45.70
2018-06-27T19:41:53.307Z,45.40
2018-06-27T19:44:21.622Z,46.40
2018-06-27T19:46:49.990Z,46.10
2018-06-27T19:49:18.344Z,45.80
2018-06-27T19:51:46.801Z,46.30
2018-06-27T19:54:15.131Z,45.60
2018-06-27T19:56:43.369Z,46.10
2018-06-27T19:59:11.752Z,46.70
2018-06-27T20:01:40.033Z,46.10
2018-06-27T20:04:08.412Z,46.70
2018-06-27T20:06:36.715Z,46.80
2018-06-27T20:09:07.455Z,46.80
2018-06-27T20:11:35.758Z,46.90
2018-06-27T20:14:04.170Z,46.60
2018-06-27T20:16:32.489Z,46.90
2018-06-27T20:19:00.980Z,46.70
2018-06-27T20:23:57.423Z,46.40
2018-06-27T20:26:25.807Z,46.50
2018-06-27T20:28:54.170Z,46.50
2018-06-27T20:31:22.459Z,46.30
2018-06-27T20:33:50.864Z,46.40
2018-06-27T20:36:19.365Z,46.40
2018-06-27T20:38:47.683Z,46.40
2018-06-27T20:41:15.971Z,46.60
2018-06-27T20:43:44.287Z,47.20
2018-06-27T20:48:40.735Z,46.90
2018-06-27T20:53:37.359Z,47.00
2018-06-27T20:56:06.421Z,47.20
2018-06-27T20:58:35.637Z,47.50
2018-06-27T21:01:03.882Z,47.50
2018-06-27T21:03:32.149Z,47.00
2018-06-27T21:06:00.408Z,47.00
2018-06-27T21:08:28.683Z,46.80
2018-06-27T21:10:56.968Z,47.40
2018-06-27T21:13:25.231Z,47.20
2018-06-27T21:15:53.513Z,47.20
2018-06-27T21:20:49.805Z,47.30
2018-06-27T21:23:18.057Z,47.30
2018-06-27T21:25:46.336Z,47.20
2018-06-27T21:28:14.643Z,47.20
2018-06-27T21:30:42.917Z,47.40
2018-06-27T21:33:11.183Z,47.40
2018-06-27T21:35:39.451Z,47.80
2018-06-27T21:38:07.833Z,47.80
2018-06-27T21:43:04.338Z,47.90
2018-06-27T21:45:32.609Z,48.00
2018-06-27T21:48:00.846Z,48.10
2018-06-27T21:50:29.152Z,48.00
2018-06-27T21:52:57.419Z,48.20
2018-06-27T21:55:25.674Z,48.30
2018-06-27T21:57:53.940Z,48.30
2018-06-27T22:00:24.442Z,48.30
2018-06-27T22:02:53.057Z,48.40
2018-06-27T22:05:21.395Z,48.70
2018-06-27T22:07:49.655Z,48.80
2018-06-27T22:10:17.976Z,48.90
2018-06-27T22:12:46.269Z,49.20
2018-06-27T22:15:14.561Z,49.40
2018-06-27T22:17:42.885Z,49.30
2018-06-27T22:20:11.133Z,49.50
2018-06-27T22:22:39.438Z,49.70
2018-06-27T22:25:07.818Z,49.70
2018-06-27T22:27:36.166Z,49.60
2018-06-27T22:30:04.734Z,50.00
2018-06-27T22:32:33.017Z,50.10
2018-06-27T22:35:01.285Z,50.30
2018-06-27T22:37:29.667Z,50.50
2018-06-27T22:39:57.930Z,50.80
2018-06-27T22:44:54.208Z,51.10
2018-06-27T22:47:22.547Z,51.50
2018-06-27T22:49:51.029Z,51.60
2018-06-27T22:52:19.297Z,51.60
2018-06-27T22:54:47.567Z,51.90
2018-06-27T22:59:43.855Z,52.30
2018-06-27T23:02:12.182Z,52.40
2018-06-27T23:04:40.451Z,52.90
2018-06-27T23:07:08.730Z,53.20
2018-06-27T23:09:36.990Z,53.20
2018-06-27T23:12:05.457Z,53.30
2018-06-27T23:14:33.731Z,53.60
2018-06-27T23:17:02.092Z,54.30
2018-06-27T23:19:30.358Z,53.60
2018-06-27T23:21:58.666Z,53.90
2018-06-27T23:24:26.959Z,54.20
2018-06-27T23:26:55.250Z,54.40
2018-06-27T23:29:23.519Z,54.20
2018-06-27T23:34:19.977Z,54.70
2018-06-27T23:36:48.282Z,54.80
2018-06-27T23:39:16.554Z,54.40
2018-06-27T23:41:44.865Z,54.40
2018-06-27T23:44:13.140Z,54.30
2018-06-27T23:46:41.494Z,53.90
2018-06-27T23:49:09.856Z,53.70
2018-06-27T23:51:38.254Z,53.60
2018-06-27T23:54:06.629Z,53.50
2018-06-27T23:56:34.937Z,53.60
2018-06-27T23:59:03.352Z,53.80
